Terminal Aerodrome Forecast
Issued by NWS

Home | Current Version | Previous Version | Text Only | Print | Product List | Glossary On
Versions: 1 2 3 4 5 6 7 8 9 10 11 12 13 14 15 16 17 18 19 20 21 22 23 24 25 26 27 28 29 30 31 32
000
FTUS41 KBOX 111730
TAFFMH
TAF
KFMH 111730Z 1118/1218 27016KT 3SM -SHSN BKN025
     FM111900 28016G25KT P6SM BKN040
     FM112300 29016G27KT P6SM SCT250
     FM121300 29010G18KT P6SM FEW250
     FM121700 25008KT P6SM SCT150=

USA.gov is the U.S. government's official web portal to all federal, state and local government web resources and services.